Time;durP1;ratioP1;P1;durP2;ratioP2;P2;SDS_P1;SDS_P2;PMS_P1;PMS_P2;Temp;Humidity;BMP_temperature;BMP_pressure;BME280_temperature;BME280_humidity;BME280_pressure;Samples;Min_cycle;Max_cycle;Signal;HPM_P1;HPM_P2
2022/09/07 00:02:00;;;;;;;20.80;11.43;;;17.80;99.90;;;;;;5020230;28;90079;-32
2022/09/07 00:04:26;;;;;;;14.95;12.30;;;17.80;99.90;;;;;;5018405;28;90600;-31
2022/09/07 00:06:51;;;;;;;12.30;11.00;;;17.80;99.90;;;;;;5020807;28;90110;-31
2022/09/07 00:09:17;;;;;;;11.77;10.70;;;17.80;99.90;;;;;;5020186;28;88145;-32
2022/09/07 00:11:43;;;;;;;11.63;10.52;;;17.70;99.90;;;;;;5020769;27;89893;-31
2022/09/07 00:14:08;;;;;;;15.88;11.07;;;17.70;99.90;;;;;;5020165;28;89841;-36
2022/09/07 00:16:34;;;;;;;23.77;11.43;;;17.70;99.90;;;;;;5020000;28;89730;-33
2022/09/07 00:19:03;;;;;;;14.30;12.93;;;17.70;99.90;;;;;;5020870;28;90189;-32
2022/09/07 00:21:29;;;;;;;12.35;11.18;;;17.70;99.90;;;;;;5020100;28;90560;-36
2022/09/07 00:23:55;;;;;;;13.27;11.70;;;17.70;99.90;;;;;;5020474;27;89695;-32
2022/09/07 00:26:27;;;;;;;12.73;11.43;;;17.70;99.90;;;;;;5020180;27;90335;-33
2022/09/07 00:28:57;;;;;;;12.77;10.52;;;17.70;99.90;;;;;;5020349;27;90002;-31
2022/09/07 00:31:23;;;;;;;12.25;10.98;;;17.70;99.90;;;;;;5020198;28;90032;-31
2022/09/07 00:33:50;;;;;;;12.65;11.48;;;17.60;99.90;;;;;;5020432;28;91235;-32
2022/09/07 00:36:17;;;;;;;13.25;11.68;;;17.60;99.90;;;;;;5058190;22;89387;-34
2022/09/07 00:38:43;;;;;;;14.13;10.40;;;17.60;99.90;;;;;;5020174;27;88582;-31
2022/09/07 00:41:10;;;;;;;12.43;11.07;;;17.60;99.90;;;;;;5019796;27;90685;-30
2022/09/07 00:43:39;;;;;;;13.40;10.73;;;17.70;99.90;;;;;;5019928;28;89788;-34
2022/09/07 00:46:09;;;;;;;11.35;10.30;;;17.70;99.90;;;;;;5017951;28;89555;-35
2022/09/07 00:48:43;;;;;;;11.98;10.52;;;17.70;99.90;;;;;;5019770;28;88781;-33
2022/09/07 00:51:15;;;;;;;13.95;11.52;;;17.70;99.90;;;;;;5019671;27;90645;-35
2022/09/07 00:53:47;;;;;;;11.68;10.68;;;17.80;99.90;;;;;;5018688;28;91923;-36
2022/09/07 00:56:13;;;;;;;12.45;10.85;;;17.80;99.90;;;;;;5018852;27;91456;-34
2022/09/07 00:58:41;;;;;;;11.85;10.55;;;17.80;99.90;;;;;;5020922;27;90436;-33
2022/09/07 01:01:08;;;;;;;11.18;10.18;;;17.80;99.90;;;;;;5019536;27;90165;-32
2022/09/07 01:03:40;;;;;;;13.38;11.60;;;17.80;99.90;;;;;;5019495;27;89457;-31
2022/09/07 01:06:16;;;;;;;12.85;11.40;;;17.90;99.90;;;;;;5019985;28;90250;-31
2022/09/07 01:08:43;;;;;;;14.85;12.02;;;17.90;99.90;;;;;;5018303;28;89196;-35
2022/09/07 01:11:10;;;;;;;12.97;11.60;;;17.90;99.90;;;;;;5019184;27;90774;-33
2022/09/07 01:13:39;;;;;;;13.20;11.65;;;17.80;99.90;;;;;;5018988;28;89647;-33
2022/09/07 01:16:24;;;;;;;12.05;10.73;;;17.80;99.90;;;;;;5019292;28;88647;-33
2022/09/07 01:19:16;;;;;;;15.27;13.63;;;17.70;99.90;;;;;;5018594;28;88955;-36
2022/09/07 01:21:57;;;;;;;27.10;15.38;;;17.80;99.90;;;;;;5019314;28;89072;-33
2022/09/07 01:24:41;;;;;;;18.52;15.30;;;17.70;99.90;;;;;;5019369;28;90016;-31
2022/09/07 01:27:42;;;;;;;17.77;16.05;;;17.60;99.90;;;;;;5005459;28;89424;-32
2022/09/07 01:30:30;;;;;;;18.98;16.98;;;17.60;99.90;;;;;;5019293;27;90235;-36
2022/09/07 01:33:19;;;;;;;22.23;16.00;;;17.50;99.90;;;;;;5018992;27;90522;-34
2022/09/07 01:36:01;;;;;;;18.15;16.27;;;17.50;99.90;;;;;;5018992;27;89187;-33
2022/09/07 01:38:32;;;;;;;20.30;18.40;;;17.50;99.90;;;;;;5018746;27;89494;-32
2022/09/07 01:41:03;;;;;;;21.00;18.80;;;17.40;99.90;;;;;;5019077;28;90049;-33
2022/09/07 01:43:54;;;;;;;20.50;18.20;;;17.40;99.90;;;;;;5019066;27;90359;-34
2022/09/07 01:46:27;;;;;;;23.35;17.48;;;17.40;99.90;;;;;;5018402;28;90704;-35
2022/09/07 01:48:58;;;;;;;18.75;16.75;;;17.30;99.90;;;;;;5018639;27;91193;-32
2022/09/07 01:51:30;;;;;;;20.70;17.83;;;17.30;99.90;;;;;;5018391;27;89236;-34
2022/09/07 01:54:05;;;;;;;18.55;16.70;;;17.30;99.90;;;;;;5019622;27;89302;-32
2022/09/07 01:56:36;;;;;;;18.83;16.90;;;17.30;99.90;;;;;;5018275;28;89963;-32
2022/09/07 01:59:27;;;;;;;19.55;17.58;;;17.40;99.90;;;;;;5018581;27;90234;-32
2022/09/07 02:02:13;;;;;;;20.20;18.10;;;17.30;99.90;;;;;;5018985;27;89266;-34
2022/09/07 02:04:46;;;;;;;24.13;17.98;;;17.30;99.90;;;;;;5005367;28;91723;-33
2022/09/07 02:07:22;;;;;;;17.73;15.88;;;17.30;99.90;;;;;;5018242;27;90605;-34
2022/09/07 02:09:55;;;;;;;18.98;17.10;;;17.20;99.90;;;;;;5019230;27;91350;-33
2022/09/07 02:12:50;;;;;;;18.25;16.30;;;17.20;99.90;;;;;;5018389;27;88748;-34
2022/09/07 02:15:22;;;;;;;18.38;16.08;;;17.20;99.90;;;;;;4969935;28;91601;-32
2022/09/07 02:17:53;;;;;;;15.50;14.00;;;17.20;99.90;;;;;;5019006;28;90326;-36
2022/09/07 02:20:21;;;;;;;13.88;12.50;;;17.20;99.90;;;;;;5017872;27;89648;-30
2022/09/07 02:22:54;;;;;;;17.98;14.07;;;17.20;99.90;;;;;;5018715;28;88547;-36
2022/09/07 02:25:24;;;;;;;18.80;14.57;;;17.20;99.90;;;;;;5017849;27;90254;-34
2022/09/07 02:27:55;;;;;;;15.35;13.82;;;17.20;99.90;;;;;;5016806;28;90939;-32
2022/09/07 02:30:21;;;;;;;15.70;14.10;;;17.20;99.90;;;;;;5018347;27;90000;-30
2022/09/07 02:32:47;;;;;;;17.20;12.73;;;17.20;99.90;;;;;;5018244;28;88306;-34
2022/09/07 02:35:13;;;;;;;14.73;13.13;;;17.20;99.90;;;;;;5017808;27;90181;-33
2022/09/07 02:37:41;;;;;;;15.45;13.95;;;17.10;99.90;;;;;;5018007;27;91584;-32
2022/09/07 02:40:07;;;;;;;15.75;14.10;;;17.20;99.90;;;;;;5017948;28;90583;-32
2022/09/07 02:42:34;;;;;;;13.40;12.23;;;17.20;99.90;;;;;;5017959;27;87631;-31
2022/09/07 02:45:03;;;;;;;18.40;13.85;;;17.20;99.90;;;;;;5017717;28;90360;-31
2022/09/07 02:47:48;;;;;;;14.65;13.25;;;17.20;99.90;;;;;;5017160;27;90598;-34
2022/09/07 02:50:34;;;;;;;14.50;13.10;;;17.20;99.90;;;;;;5018277;28;89517;-37
2022/09/07 02:53:12;;;;;;;15.68;14.10;;;17.20;99.90;;;;;;5004061;28;89314;-32
2022/09/07 02:55:47;;;;;;;17.85;15.80;;;17.20;99.90;;;;;;5018361;28;89290;-34
2022/09/07 02:58:28;;;;;;;16.00;13.82;;;17.20;99.90;;;;;;5016940;28;90073;-35
2022/09/07 03:01:04;;;;;;;15.18;13.77;;;17.20;99.90;;;;;;5018071;28;89579;-32
2022/09/07 03:03:46;;;;;;;19.30;15.13;;;17.10;99.90;;;;;;5017532;27;90301;-36
2022/09/07 03:06:43;;;;;;;20.60;15.13;;;17.10;99.90;;;;;;5017212;28;90265;-37
2022/09/07 03:09:19;;;;;;;18.40;16.50;;;17.10;99.90;;;;;;5016598;28;89890;-31
2022/09/07 03:11:46;;;;;;;17.63;15.80;;;17.10;99.90;;;;;;5018103;28;90154;-33
2022/09/07 03:14:23;;;;;;;16.83;15.10;;;17.10;99.90;;;;;;5018337;27;89246;-35
2022/09/07 03:16:51;;;;;;;18.38;16.65;;;17.00;99.90;;;;;;5017479;27;90705;-34
2022/09/07 03:19:17;;;;;;;17.20;15.57;;;17.00;99.90;;;;;;5017381;27;89284;-33
2022/09/07 03:21:43;;;;;;;20.00;17.13;;;17.00;99.90;;;;;;5017624;28;89875;-37
2022/09/07 03:24:09;;;;;;;17.88;15.50;;;16.90;99.90;;;;;;5017613;28;88879;-33
2022/09/07 03:26:39;;;;;;;16.92;15.20;;;16.90;99.90;;;;;;5017124;28;90135;-32
2022/09/07 03:29:04;;;;;;;20.10;18.00;;;17.00;99.90;;;;;;5016853;27;90807;-34
2022/09/07 03:31:32;;;;;;;19.00;17.10;;;17.00;99.90;;;;;;5017388;27;89354;-32
2022/09/07 03:33:57;;;;;;;18.25;16.50;;;16.90;99.90;;;;;;5020882;28;88869;-34
2022/09/07 03:36:23;;;;;;;18.67;16.77;;;16.90;99.90;;;;;;5019909;28;91382;-35
2022/09/07 03:38:49;;;;;;;21.58;17.98;;;16.90;99.90;;;;;;5021820;28;88665;-33
2022/09/07 03:41:14;;;;;;;20.77;18.58;;;16.80;99.90;;;;;;5020527;28;89411;-30
2022/09/07 03:43:40;;;;;;;20.48;18.40;;;16.90;99.90;;;;;;5020926;28;89244;-31
2022/09/07 03:46:06;;;;;;;23.35;20.60;;;16.80;99.90;;;;;;5020172;27;88994;-35
2022/09/07 03:48:33;;;;;;;21.98;18.92;;;16.80;99.90;;;;;;5020509;27;89458;-30
2022/09/07 03:51:05;;;;;;;24.20;20.52;;;16.80;99.90;;;;;;5021024;28;89003;-32
2022/09/07 03:53:35;;;;;;;20.95;18.83;;;16.80;99.90;;;;;;5019971;27;90705;-36
2022/09/07 03:56:04;;;;;;;20.80;18.73;;;16.80;99.90;;;;;;5019904;27;90132;-34
2022/09/07 03:58:31;;;;;;;20.95;18.70;;;16.80;99.90;;;;;;5020445;28;89978;-35
2022/09/07 04:00:57;;;;;;;20.38;18.27;;;16.90;99.90;;;;;;5020909;27;90719;-33
2022/09/07 04:03:23;;;;;;;22.80;20.50;;;16.80;99.90;;;;;;5018990;28;89469;-31
2022/09/07 04:05:49;;;;;;;23.35;20.88;;;16.80;99.90;;;;;;5020997;28;88810;-35
2022/09/07 04:08:14;;;;;;;20.92;18.92;;;16.80;99.90;;;;;;5020093;28;89846;-33
2022/09/07 04:10:40;;;;;;;22.40;20.08;;;16.90;99.90;;;;;;5020046;28;89512;-36
2022/09/07 04:13:06;;;;;;;22.23;20.02;;;16.80;99.90;;;;;;5020956;28;87771;-31
2022/09/07 04:15:32;;;;;;;22.42;20.15;;;16.80;99.90;;;;;;5019878;28;91517;-33
2022/09/07 04:17:58;;;;;;;22.70;20.42;;;16.80;99.90;;;;;;5019659;27;90534;-32
2022/09/07 04:20:24;;;;;;;23.55;20.15;;;16.80;99.90;;;;;;5020193;28;89733;-30
2022/09/07 04:22:50;;;;;;;22.67;20.42;;;16.80;99.90;;;;;;5019516;28;89001;-33
2022/09/07 04:25:16;;;;;;;23.13;20.92;;;16.80;99.90;;;;;;5020082;28;90251;-34
2022/09/07 04:27:42;;;;;;;22.50;20.30;;;16.80;99.90;;;;;;5019611;28;89551;-34
2022/09/07 04:30:08;;;;;;;23.45;21.05;;;16.70;99.90;;;;;;5020876;28;89805;-35
2022/09/07 04:32:34;;;;;;;27.38;20.98;;;16.80;99.90;;;;;;5020000;27;87964;-33
2022/09/07 04:34:59;;;;;;;23.65;21.27;;;16.70;99.90;;;;;;5019768;28;90142;-32
2022/09/07 04:37:25;;;;;;;24.58;21.55;;;16.70;99.90;;;;;;5019462;28;89781;-33
2022/09/07 04:39:51;;;;;;;25.15;21.05;;;16.70;99.90;;;;;;5019715;27;89186;-31
2022/09/07 04:42:17;;;;;;;25.30;22.77;;;16.70;99.90;;;;;;5019924;28;89314;-30
2022/09/07 04:44:42;;;;;;;24.73;22.33;;;16.70;99.90;;;;;;5019470;28;89088;-32
2022/09/07 04:47:08;;;;;;;26.20;23.80;;;16.70;99.90;;;;;;5019111;28;89979;-36
2022/09/07 04:49:34;;;;;;;25.40;22.73;;;16.70;99.90;;;;;;5019618;28;89680;-31
2022/09/07 04:52:00;;;;;;;31.75;25.60;;;16.60;99.90;;;;;;5019764;28;89150;-30
2022/09/07 04:54:25;;;;;;;26.42;23.83;;;16.60;99.90;;;;;;5020025;28;89350;-33
2022/09/07 04:56:51;;;;;;;24.23;21.65;;;16.60;99.90;;;;;;5018857;28;90396;-34
2022/09/07 04:59:17;;;;;;;27.73;23.35;;;16.60;99.90;;;;;;5019036;27;88227;-30
2022/09/07 05:01:42;;;;;;;24.35;22.08;;;16.70;99.90;;;;;;5020240;28;89150;-33
2022/09/07 05:04:08;;;;;;;28.80;22.92;;;16.70;99.90;;;;;;5019263;28;90129;-29
2022/09/07 05:06:33;;;;;;;25.08;22.67;;;16.70;99.90;;;;;;5019059;28;91075;-32
2022/09/07 05:08:59;;;;;;;24.70;22.35;;;16.70;99.90;;;;;;5018461;28;89988;-36
2022/09/07 05:11:25;;;;;;;25.27;22.77;;;16.80;99.90;;;;;;5019424;28;89437;-33
2022/09/07 05:13:51;;;;;;;23.55;21.23;;;16.70;99.90;;;;;;5019158;27;90144;-33
2022/09/07 05:16:19;;;;;;;26.73;22.33;;;16.70;99.90;;;;;;5018845;28;90339;-37
2022/09/07 05:18:49;;;;;;;30.40;27.50;;;16.70;99.90;;;;;;5019202;28;90177;-36
2022/09/07 05:21:18;;;;;;;25.15;22.90;;;16.70;99.90;;;;;;5018492;27;89321;-33
2022/09/07 05:23:47;;;;;;;25.33;22.77;;;16.70;99.90;;;;;;5019699;27;90708;-32
2022/09/07 05:26:13;;;;;;;26.30;23.55;;;16.70;99.90;;;;;;5019317;27;89500;-36
2022/09/07 05:28:39;;;;;;;24.83;22.52;;;16.70;99.90;;;;;;5018838;27;91265;-32
2022/09/07 05:31:05;;;;;;;26.45;23.55;;;16.70;99.90;;;;;;5019239;28;89163;-33
2022/09/07 05:33:31;;;;;;;26.65;23.55;;;16.80;99.90;;;;;;5018337;27;90295;-33
2022/09/07 05:35:58;;;;;;;28.00;25.15;;;16.80;99.90;;;;;;5017477;28;89671;-34
2022/09/07 05:38:24;;;;;;;21.98;19.55;;;16.80;99.90;;;;;;5018927;28;90890;-33
2022/09/07 05:40:50;;;;;;;26.50;24.02;;;16.80;99.90;;;;;;5019656;28;89819;-32
2022/09/07 05:43:16;;;;;;;23.45;21.10;;;16.80;99.90;;;;;;5017887;27;90905;-30
2022/09/07 05:45:42;;;;;;;22.75;20.63;;;16.80;99.90;;;;;;5018704;27;89968;-34
2022/09/07 05:48:07;;;;;;;24.05;21.55;;;16.80;99.90;;;;;;5018400;28;89895;-33
2022/09/07 05:50:34;;;;;;;22.73;20.25;;;16.80;99.90;;;;;;5019233;28;88823;-33
2022/09/07 05:53:00;;;;;;;25.48;22.88;;;16.80;99.90;;;;;;5019261;27;89940;-34
2022/09/07 05:55:26;;;;;;;24.70;22.20;;;16.80;99.90;;;;;;5017145;27;91245;-34
2022/09/07 05:57:52;;;;;;;26.25;23.67;;;16.80;99.90;;;;;;5018586;27;91254;-35
2022/09/07 06:00:20;;;;;;;24.40;21.88;;;16.80;99.90;;;;;;5018544;28;87962;-34
2022/09/07 06:02:46;;;;;;;25.88;23.30;;;16.80;99.90;;;;;;5018530;27;90502;-31
2022/09/07 06:05:12;;;;;;;30.15;23.48;;;16.80;99.90;;;;;;5018187;27;90313;-36
2022/09/07 06:07:37;;;;;;;24.77;21.80;;;16.90;99.90;;;;;;5018821;28;91221;-33
2022/09/07 06:10:04;;;;;;;23.45;20.98;;;16.90;99.90;;;;;;5018102;27;89308;-31
2022/09/07 06:12:30;;;;;;;26.08;23.45;;;16.90;99.90;;;;;;5018535;27;90077;-32
2022/09/07 06:14:55;;;;;;;27.20;21.75;;;17.00;99.90;;;;;;5015910;28;90065;-35
2022/09/07 06:17:21;;;;;;;25.33;22.98;;;17.00;99.90;;;;;;5016847;28;89733;-33
2022/09/07 06:19:46;;;;;;;34.70;24.30;;;17.00;99.90;;;;;;5017567;28;90322;-32
2022/09/07 06:22:12;;;;;;;27.73;24.58;;;17.00;99.90;;;;;;5017275;28;91799;-33
2022/09/07 06:24:38;;;;;;;28.50;25.48;;;17.00;99.90;;;;;;5018544;28;89548;-31
2022/09/07 06:27:03;;;;;;;25.63;22.85;;;17.00;99.90;;;;;;5017638;27;89468;-30
2022/09/07 06:29:29;;;;;;;25.88;23.10;;;17.10;99.90;;;;;;5018903;28;89171;-35
2022/09/07 06:31:54;;;;;;;25.77;23.33;;;17.10;99.90;;;;;;5017332;28;90339;-32
2022/09/07 06:34:21;;;;;;;25.63;22.95;;;17.10;99.90;;;;;;5017784;28;89183;-36
2022/09/07 06:36:47;;;;;;;27.63;23.60;;;17.10;99.90;;;;;;5017961;27;90045;-32
2022/09/07 06:39:12;;;;;;;26.08;23.63;;;17.20;99.90;;;;;;5016734;28;89335;-32
2022/09/07 06:41:38;;;;;;;24.63;21.98;;;17.30;99.90;;;;;;5018023;28;90396;-35
2022/09/07 06:44:04;;;;;;;26.75;23.88;;;17.40;99.90;;;;;;5017054;28;89583;-32
2022/09/07 06:46:29;;;;;;;28.27;23.73;;;17.50;99.90;;;;;;5018166;28;89879;-34
2022/09/07 06:48:55;;;;;;;26.23;23.73;;;17.60;99.90;;;;;;5017859;28;88915;-31
2022/09/07 06:51:25;;;;;;;23.40;21.10;;;17.70;99.90;;;;;;5017461;28;90574;-33
2022/09/07 06:53:53;;;;;;;25.35;22.83;;;17.80;99.90;;;;;;5017599;27;89761;-31
2022/09/07 06:56:19;;;;;;;26.65;21.92;;;17.80;99.90;;;;;;5018044;27;90313;-31
2022/09/07 06:58:45;;;;;;;28.52;22.80;;;17.80;99.90;;;;;;5016838;28;88108;-32
2022/09/07 07:01:16;;;;;;;24.23;21.08;;;17.80;99.90;;;;;;5017658;27;90832;-30
2022/09/07 07:03:43;;;;;;;22.80;20.65;;;17.90;99.90;;;;;;5017433;28;90568;-33
2022/09/07 07:06:09;;;;;;;25.45;22.67;;;17.90;99.90;;;;;;5018266;27;89578;-36
2022/09/07 07:08:36;;;;;;;21.63;19.58;;;17.90;99.90;;;;;;5018877;27;89037;-34
2022/09/07 07:11:03;;;;;;;22.27;19.90;;;17.90;99.90;;;;;;5003336;28;89073;-33
2022/09/07 07:13:29;;;;;;;21.77;19.67;;;17.90;99.90;;;;;;5020641;27;90013;-34
2022/09/07 07:16:16;;;;;;;20.10;18.08;;;17.90;99.90;;;;;;5021079;27;89315;-31
2022/09/07 07:18:43;;;;;;;22.63;18.53;;;17.80;99.90;;;;;;5021738;28;89972;-31
2022/09/07 07:21:10;;;;;;;21.77;19.40;;;17.70;99.90;;;;;;5021348;28;90127;-34
2022/09/07 07:23:36;;;;;;;21.98;19.60;;;17.70;99.90;;;;;;5021141;27;89726;-35
2022/09/07 07:26:03;;;;;;;22.60;19.73;;;17.70;99.90;;;;;;5021317;28;89869;-32
2022/09/07 07:28:29;;;;;;;23.08;20.67;;;17.70;99.90;;;;;;5020974;28;89231;-33
2022/09/07 07:30:56;;;;;;;23.17;18.58;;;17.80;99.90;;;;;;5021456;27;91025;-31
2022/09/07 07:33:34;;;;;;;22.00;19.38;;;17.70;99.90;;;;;;5020516;27;90596;-32
2022/09/07 07:36:16;;;;;;;21.00;18.80;;;17.70;99.90;;;;;;5017789;27;90539;-31
2022/09/07 07:38:44;;;;;;;20.67;18.63;;;17.70;99.90;;;;;;5021269;27;89226;-32
2022/09/07 07:41:11;;;;;;;22.10;19.70;;;17.80;99.90;;;;;;5020860;27;89171;-36
2022/09/07 07:43:37;;;;;;;19.60;17.73;;;17.70;99.90;;;;;;5020628;27;89463;-34
2022/09/07 07:46:04;;;;;;;22.52;20.05;;;17.70;99.90;;;;;;5020466;28;90496;-34
2022/09/07 07:48:32;;;;;;;24.05;18.88;;;17.80;99.90;;;;;;5021344;27;87874;-32
2022/09/07 07:51:06;;;;;;;22.98;18.80;;;17.80;99.90;;;;;;5020881;27;90450;-31
2022/09/07 07:53:34;;;;;;;21.42;19.17;;;17.80;99.90;;;;;;5020248;27;89293;-31
2022/09/07 07:56:02;;;;;;;21.15;18.80;;;17.90;99.90;;;;;;5020399;27;89459;-31
2022/09/07 07:58:29;;;;;;;22.90;20.70;;;17.80;99.90;;;;;;5020548;27;89642;-29
2022/09/07 08:01:01;;;;;;;22.90;20.60;;;17.80;99.90;;;;;;5020088;28;90337;-31
2022/09/07 08:03:27;;;;;;;21.63;17.98;;;17.90;99.90;;;;;;5020052;28;88827;-33
2022/09/07 08:05:53;;;;;;;26.65;20.77;;;17.90;99.90;;;;;;5018161;28;89656;-32
2022/09/07 08:08:19;;;;;;;22.70;18.35;;;17.90;99.90;;;;;;5020130;28;88770;-33
2022/09/07 08:10:46;;;;;;;20.42;18.23;;;17.90;99.90;;;;;;5020694;27;90607;-29
2022/09/07 08:13:13;;;;;;;22.65;20.42;;;17.90;99.90;;;;;;5019884;27;89453;-33
2022/09/07 08:15:43;;;;;;;23.15;20.02;;;17.90;99.90;;;;;;5019743;28;89571;-32
2022/09/07 08:18:12;;;;;;;25.98;19.50;;;17.90;99.90;;;;;;5019554;27;89355;-35
2022/09/07 08:20:39;;;;;;;31.55;22.40;;;17.90;99.90;;;;;;5020633;27;90459;-31
2022/09/07 08:23:06;;;;;;;25.20;21.70;;;17.90;99.90;;;;;;5020015;27;90566;-33
2022/09/07 08:25:32;;;;;;;28.05;22.42;;;18.00;99.90;;;;;;5019548;28;90674;-33
2022/09/07 08:27:58;;;;;;;26.90;20.95;;;18.00;99.90;;;;;;5019861;27;88580;-34
2022/09/07 08:30:24;;;;;;;23.00;20.48;;;18.10;99.90;;;;;;5018837;28;89429;-32
2022/09/07 08:32:50;;;;;;;28.10;21.38;;;18.20;99.90;;;;;;5018513;27;89269;-35
2022/09/07 08:35:16;;;;;;;24.40;21.73;;;18.20;99.90;;;;;;5019033;27;90272;-36
2022/09/07 08:37:42;;;;;;;25.27;22.52;;;18.20;99.90;;;;;;5020287;28;89512;-33
2022/09/07 08:40:15;;;;;;;23.90;21.15;;;18.20;99.90;;;;;;5019008;28;90482;-32
2022/09/07 08:42:54;;;;;;;26.15;22.58;;;18.30;99.90;;;;;;5018710;28;89777;-34
2022/09/07 08:45:27;;;;;;;24.65;21.45;;;18.30;99.90;;;;;;5019220;28;90841;-31
2022/09/07 08:47:53;;;;;;;27.08;22.65;;;18.40;99.90;;;;;;5019525;27;89281;-36
2022/09/07 08:50:37;;;;;;;27.67;22.90;;;18.40;99.90;;;;;;5018948;28;90365;-34
2022/09/07 08:53:14;;;;;;;26.67;23.58;;;18.50;99.90;;;;;;5019762;28;89638;-34
2022/09/07 08:55:51;;;;;;;26.77;22.20;;;18.60;99.90;;;;;;5019682;27;90753;-31
2022/09/07 08:58:22;;;;;;;24.65;21.33;;;18.60;99.90;;;;;;5019872;27;89498;-32
2022/09/07 09:00:49;;;;;;;29.75;21.17;;;18.70;99.90;;;;;;5019862;28;90409;-32
2022/09/07 09:03:26;;;;;;;23.98;21.48;;;18.70;99.90;;;;;;5017401;28;89677;-36
2022/09/07 09:06:21;;;;;;;24.60;21.90;;;18.80;99.90;;;;;;5019201;28;89810;-35
2022/09/07 09:09:06;;;;;;;26.58;22.15;;;18.80;99.90;;;;;;5019502;28;89024;-32
2022/09/07 09:11:53;;;;;;;28.27;23.35;;;18.90;99.90;;;;;;5019208;27;90214;-31
2022/09/07 09:14:40;;;;;;;25.70;22.27;;;19.00;99.90;;;;;;5005511;28;90784;-33
2022/09/07 09:17:27;;;;;;;28.20;22.63;;;19.10;99.90;;;;;;5018351;28;90549;-35
2022/09/07 09:20:18;;;;;;;21.45;19.23;;;19.10;99.90;;;;;;5018467;27;88105;-32
2022/09/07 09:22:44;;;;;;;25.60;22.33;;;19.10;99.90;;;;;;5019128;27;89958;-33
2022/09/07 09:25:42;;;;;;;23.90;21.40;;;19.20;99.90;;;;;;5006717;28;89524;-34
2022/09/07 09:28:11;;;;;;;22.33;20.00;;;19.30;99.90;;;;;;4974015;28;90030;-33
2022/09/07 09:30:37;;;;;;;23.13;19.83;;;19.20;99.90;;;;;;5017114;27;89197;-33
2022/09/07 09:33:24;;;;;;;25.90;22.05;;;19.20;99.90;;;;;;5019602;27;91140;-33
2022/09/07 09:35:55;;;;;;;28.33;23.50;;;19.20;99.90;;;;;;5019117;27;89633;-31
2022/09/07 09:38:39;;;;;;;28.33;23.38;;;19.20;99.90;;;;;;5017339;28;90127;-35
2022/09/07 09:41:14;;;;;;;23.60;18.98;;;19.20;99.90;;;;;;5018127;28;90523;-31
2022/09/07 09:43:46;;;;;;;24.13;21.15;;;19.20;99.90;;;;;;5019059;28;90267;-31
2022/09/07 09:46:22;;;;;;;20.52;17.60;;;19.30;99.90;;;;;;5018443;27;89541;-33
2022/09/07 09:49:13;;;;;;;25.90;21.92;;;19.30;99.90;;;;;;5019092;28;90021;-32
2022/09/07 09:51:44;;;;;;;22.75;20.13;;;19.30;99.90;;;;;;5018054;27;88555;-32
2022/09/07 09:54:23;;;;;;;29.02;19.88;;;19.40;99.90;;;;;;5018627;27;90897;-32
2022/09/07 09:56:49;;;;;;;24.05;21.52;;;19.50;99.90;;;;;;5018422;27;90318;-32
2022/09/07 09:59:15;;;;;;;19.85;17.50;;;19.70;99.90;;;;;;5019106;27;89230;-32
2022/09/07 10:01:41;;;;;;;21.27;17.20;;;19.80;99.90;;;;;;5018058;28;88973;-34
2022/09/07 10:04:30;;;;;;;20.35;18.23;;;19.70;99.90;;;;;;5017990;27;91038;-32
2022/09/07 10:07:17;;;;;;;15.52;14.07;;;19.80;99.90;;;;;;5017484;27;90818;-34
2022/09/07 10:09:48;;;;;;;;;;;19.90;99.90;;;;;;5018700;28;91333;-31
2022/09/07 10:12:32;;;;;;;16.70;12.32;;;20.00;99.90;;;;;;5019261;27;88258;-34
2022/09/07 10:15:03;;;;;;;13.18;11.82;;;20.10;99.90;;;;;;5018387;27;89112;-34
2022/09/07 10:17:34;;;;;;;14.40;13.05;;;20.10;99.90;;;;;;5018316;28;90396;-35
2022/09/07 10:20:14;;;;;;;15.52;12.73;;;20.10;99.90;;;;;;5018000;27;89663;-33
2022/09/07 10:22:43;;;;;;;13.13;11.93;;;20.30;99.90;;;;;;5017373;27;89662;-34
2022/09/07 10:25:35;;;;;;;17.00;13.82;;;20.30;99.90;;;;;;5017803;27;90894;-33
2022/09/07 10:28:13;;;;;;;12.82;11.60;;;20.40;99.90;;;;;;5005701;28;91561;-32
2022/09/07 10:31:00;;;;;;;14.43;13.13;;;20.40;99.90;;;;;;5018086;27;89251;-31
2022/09/07 10:33:46;;;;;;;18.80;13.85;;;20.40;99.90;;;;;;5016622;28;88525;-33
2022/09/07 10:36:51;;;;;;;13.52;12.13;;;20.40;99.90;;;;;;5016903;28;90214;-34
2022/09/07 10:39:21;;;;;;;15.85;13.32;;;20.50;99.90;;;;;;5017669;28;89080;-34
2022/09/07 10:42:06;;;;;;;16.35;14.75;;;20.60;99.90;;;;;;5018364;28;90788;-34
2022/09/07 10:44:59;;;;;;;21.55;13.43;;;20.60;99.90;;;;;;5021377;28;89708;-31
2022/09/07 10:47:45;;;;;;;15.43;13.82;;;20.60;99.90;;;;;;5021033;27;90499;-35
2022/09/07 10:50:38;;;;;;;13.65;12.18;;;20.70;99.90;;;;;;5021874;28;89423;-30
2022/09/07 10:53:15;;;;;;;12.40;10.80;;;20.70;99.90;;;;;;5009813;28;93391;-33
2022/09/07 10:55:57;;;;;;;13.77;11.77;;;21.00;99.90;;;;;;5021543;27;89152;-33
2022/09/07 10:58:36;;;;;;;13.60;12.40;;;21.00;99.90;;;;;;5020763;27;90368;-35
2022/09/07 11:01:43;;;;;;;10.60;9.50;;;21.10;99.90;;;;;;5020625;28;90563;-34
2022/09/07 11:04:27;;;;;;;12.82;10.75;;;21.20;99.90;;;;;;5000204;27;89269;-34
2022/09/07 11:07:24;;;;;;;11.18;10.07;;;21.10;99.90;;;;;;5020310;28;88496;-31
2022/09/07 11:10:00;;;;;;;11.27;10.20;;;21.30;99.90;;;;;;5014391;28;90446;-34
2022/09/07 11:12:34;;;;;;;10.68;9.68;;;21.50;99.90;;;;;;5019948;28;89752;-32
2022/09/07 11:15:23;;;;;;;10.73;9.48;;;21.70;99.90;;;;;;5021873;27;89520;-32
2022/09/07 11:17:55;;;;;;;9.60;8.65;;;21.90;99.90;;;;;;5021986;27;89494;-31
2022/09/07 11:20:42;;;;;;;8.70;8.00;;;22.00;99.90;;;;;;5020987;27;90557;-32
2022/09/07 11:23:31;;;;;;;9.30;8.48;;;22.00;99.90;;;;;;5021203;28;88864;-31
2022/09/07 11:26:13;;;;;;;7.75;7.05;;;21.90;99.90;;;;;;4999129;28;89451;-31
2022/09/07 11:28:52;;;;;;;11.50;8.48;;;21.80;99.90;;;;;;5021493;27;90370;-33
2022/09/07 11:31:23;;;;;;;9.07;8.18;;;21.80;99.90;;;;;;5021139;28;90380;-34
2022/09/07 11:34:00;;;;;;;8.32;7.05;;;22.00;99.90;;;;;;5021721;27;88687;-31
2022/09/07 11:36:31;;;;;;;9.07;8.18;;;22.00;99.90;;;;;;5020327;27;89587;-34
2022/09/07 11:39:03;;;;;;;7.68;7.00;;;22.00;99.90;;;;;;5021982;27;89542;-33
2022/09/07 11:41:35;;;;;;;7.97;7.18;;;22.00;99.90;;;;;;5020961;27;90395;-32
2022/09/07 11:44:17;;;;;;;8.75;7.95;;;22.10;99.90;;;;;;5020955;27;90934;-35
2022/09/07 11:47:20;;;;;;;8.32;7.50;;;22.20;99.90;;;;;;5021316;27;91167;-33
2022/09/07 11:49:52;;;;;;;8.85;7.72;;;22.30;99.90;;;;;;5021915;28;89027;-32
2022/09/07 11:52:35;;;;;;;7.72;6.95;;;22.40;99.90;;;;;;5020534;27;90428;-33
2022/09/07 11:55:06;;;;;;;7.35;6.75;;;22.50;99.90;;;;;;5021050;27;90715;-33
2022/09/07 11:57:42;;;;;;;8.60;7.75;;;22.60;99.90;;;;;;5020487;27;90641;-35
2022/09/07 12:00:20;;;;;;;7.75;7.10;;;22.60;99.90;;;;;;5021235;27;89762;-31
2022/09/07 12:02:48;;;;;;;;;;;22.70;99.90;;;;;;5020894;27;90326;-32
2022/09/07 12:05:19;;;;;;;7.05;6.45;;;22.70;99.90;;;;;;5021967;28;89596;-34
2022/09/07 12:08:17;;;;;;;6.97;6.35;;;22.70;99.90;;;;;;5020710;28;90710;-32
2022/09/07 12:11:17;;;;;;;12.00;6.82;;;22.70;99.90;;;;;;5021046;27;89206;-35
2022/09/07 12:14:09;;;;;;;8.85;8.05;;;22.70;99.90;;;;;;5021134;28;90959;-32
2022/09/07 12:17:05;;;;;;;8.27;6.13;;;22.60;99.90;;;;;;5020004;28;90177;-35
2022/09/07 12:19:31;;;;;;;7.30;6.60;;;22.50;99.90;;;;;;5020932;27;89622;-35
2022/09/07 12:21:58;;;;;;;6.50;6.00;;;22.60;99.90;;;;;;5020098;27;90143;-32
2022/09/07 12:24:44;;;;;;;7.88;7.20;;;22.80;99.90;;;;;;5019577;27;91037;-33
2022/09/07 12:27:10;;;;;;;7.85;7.15;;;23.00;99.90;;;;;;5020016;28;90479;-34
2022/09/07 12:29:36;;;;;;;7.50;6.80;;;23.10;99.90;;;;;;5020511;28;90166;-32
2022/09/07 12:32:02;;;;;;;7.88;6.00;;;23.30;99.90;;;;;;5020739;27;89326;-33
2022/09/07 12:34:31;;;;;;;6.63;5.50;;;23.40;99.90;;;;;;5020391;28;90373;-32
2022/09/07 12:36:57;;;;;;;6.28;4.90;;;23.60;99.90;;;;;;5046304;22;89884;-32
2022/09/07 12:39:29;;;;;;;5.07;4.57;;;23.70;99.90;;;;;;5020102;27;90075;-35
2022/09/07 12:42:06;;;;;;;5.25;4.75;;;23.80;99.90;;;;;;5021172;27;89683;-31
2022/09/07 12:44:34;;;;;;;6.35;5.75;;;23.80;99.90;;;;;;5011524;28;90920;-34
2022/09/07 12:47:02;;;;;;;6.30;4.57;;;23.70;99.90;;;;;;4999615;28;91046;-32
2022/09/07 12:50:05;;;;;;;4.18;3.85;;;23.60;99.90;;;;;;4999524;28;90284;-35
2022/09/07 12:52:44;;;;;;;4.78;3.00;;;23.50;99.90;;;;;;4999996;28;89809;-32
2022/09/07 12:55:11;;;;;;;4.45;3.22;;;23.40;99.90;;;;;;5000514;28;90507;-33
2022/09/07 12:58:02;;;;;;;3.08;2.88;;;23.20;99.90;;;;;;4999351;28;89950;-32